KGVE/GVE METAR and TAF weather

Enter ICAO airport designator
Station Type Date Time Source
KGVE METAR 2021/04/18 02:35 UTC NOAA

KGVE 180235Z AUTO 00000KT 10SM OVC110 11/08 A2986 RMK AO1 T01100079


Station Type Date Time Source
KGVE Decoded METAR 2021/04/18 02:35 UTC NOAA

Station name not available
Apr 17, 2021 - 10:35 PM EDT / 2021.04.18 0235 UTC
Wind: Calm:0
Visibility: 10 mile(s):0
Sky conditions: overcast
Temperature: 51.8 F (11.0 C)
Dew Point: 46.2 F (7.9 C)
Relative Humidity: 81%
Pressure (altimeter): 29.86 in. Hg (1011 hPa)
ob: KGVE 180235Z AUTO 00000KT 10SM OVC110 11/08 A2986 RMK AO1 T01100079
cycle: 2

Station Type Date Time Source
KGVE TAF UTC NOAA

Error!

Example: see airport list